Time;durP1;ratioP1;P1;durP2;ratioP2;P2;SDS_P1;SDS_P2;PMS_P1;PMS_P2;Temp;Humidity;BMP_temperature;BMP_pressure;BME280_temperature;BME280_humidity;BME280_pressure;Samples;Min_cycle;Max_cycle;Signal;HPM_P1;HPM_P2
2022/12/28 00:00:06;;;;;;;1.10;1.10;;;19.40;99.90;;;;;;4906442;29;20265;-78
2022/12/28 00:02:33;;;;;;;1.00;1.00;;;19.40;99.90;;;;;;4905050;29;20741;-78
2022/12/28 00:05:00;;;;;;;1.17;1.17;;;19.40;99.90;;;;;;4902276;29;20214;-78
2022/12/28 00:07:26;;;;;;;3.55;1.10;;;19.60;99.90;;;;;;4902223;29;20225;-78
2022/12/28 00:09:54;;;;;;;0.90;0.90;;;19.40;99.90;;;;;;4901846;29;20208;-78
2022/12/28 00:12:21;;;;;;;1.00;0.73;;;19.40;99.90;;;;;;4901734;29;20209;-78
2022/12/28 00:14:48;;;;;;;1.10;1.10;;;19.40;99.90;;;;;;4901437;29;20202;-78
2022/12/28 00:17:14;;;;;;;0.90;0.90;;;19.40;99.90;;;;;;4901057;29;20236;-78
2022/12/28 00:19:41;;;;;;;1.52;1.42;;;19.40;99.90;;;;;;4900980;29;20609;-78
2022/12/28 00:22:08;;;;;;;1.15;1.05;;;19.50;99.90;;;;;;4901475;29;20225;-78
2022/12/28 00:24:34;;;;;;;1.23;0.73;;;19.40;99.90;;;;;;4901712;29;20202;-78
2022/12/28 00:27:02;;;;;;;0.85;0.85;;;19.40;99.90;;;;;;4901169;29;20233;-78
2022/12/28 00:29:29;;;;;;;2.28;0.80;;;19.40;99.90;;;;;;4901271;29;20206;-79
2022/12/28 00:31:56;;;;;;;2.97;1.00;;;19.40;99.90;;;;;;4901081;29;20595;-78
2022/12/28 00:34:22;;;;;;;1.02;1.02;;;19.40;99.90;;;;;;4900164;29;20209;-78
2022/12/28 00:36:50;;;;;;;1.10;1.10;;;19.40;99.90;;;;;;4900016;29;20226;-78
2022/12/28 00:39:17;;;;;;;1.98;1.13;;;19.40;99.90;;;;;;4901387;29;20241;-78
2022/12/28 06:19:02;;;;;;;4.40;0.52;;;19.40;99.90;;;;;;5867893;23;21552;-74
2022/12/28 06:21:32;;;;;;;3.30;0.40;;;19.30;99.90;;;;;;4917191;29;20224;-73
2022/12/28 06:24:01;;;;;;;1.20;0.50;;;19.30;99.90;;;;;;4917554;29;20248;-73
2022/12/28 06:26:29;;;;;;;0.95;0.40;;;19.20;99.90;;;;;;4917304;29;20207;-73
2022/12/28 06:28:56;;;;;;;0.32;0.32;;;19.20;99.90;;;;;;4917191;29;20224;-73
2022/12/28 06:31:25;;;;;;;2.55;0.40;;;19.20;99.90;;;;;;4917170;29;20204;-73
2022/12/28 06:33:55;;;;;;;3.08;0.40;;;19.20;99.90;;;;;;4916937;29;20673;-73
2022/12/28 06:36:24;;;;;;;1.95;0.40;;;19.20;99.90;;;;;;4917277;29;20193;-73
2022/12/28 06:38:54;;;;;;;1.98;0.57;;;19.10;99.90;;;;;;4917123;29;20229;-72
2022/12/28 06:41:21;;;;;;;0.32;0.30;;;19.20;99.90;;;;;;4917721;29;20208;-74
2022/12/28 06:43:49;;;;;;;1.67;0.43;;;19.10;99.90;;;;;;4917070;29;20252;-74
2022/12/28 06:46:18;;;;;;;0.30;0.30;;;19.10;99.90;;;;;;4917379;29;20208;-74
2022/12/28 06:48:45;;;;;;;1.85;0.38;;;19.10;99.90;;;;;;4916765;29;20573;-74
2022/12/28 06:51:14;;;;;;;3.58;0.40;;;19.20;99.90;;;;;;4917258;29;20216;-74
2022/12/28 06:53:42;;;;;;;1.85;0.30;;;19.10;99.90;;;;;;4916780;29;20550;-74
2022/12/28 06:56:12;;;;;;;1.45;0.25;;;19.10;99.90;;;;;;4916779;29;20212;-74
2022/12/28 06:58:39;;;;;;;1.65;0.30;;;19.10;99.90;;;;;;4916726;29;20753;-75
2022/12/28 07:01:07;;;;;;;3.63;0.30;;;19.10;99.90;;;;;;4917013;29;20209;-75
2022/12/28 07:03:34;;;;;;;0.25;0.25;;;19.10;99.90;;;;;;4916955;29;20225;-75
2022/12/28 07:06:02;;;;;;;0.50;0.50;;;19.10;99.90;;;;;;4916948;29;20220;-75
2022/12/28 07:08:29;;;;;;;0.30;0.30;;;19.10;99.90;;;;;;4916878;29;20224;-75
2022/12/28 07:11:02;;;;;;;6.03;0.50;;;19.10;99.90;;;;;;4916614;29;20696;-75
2022/12/28 07:13:30;;;;;;;1.15;0.20;;;19.00;99.90;;;;;;4917633;29;20209;-75
2022/12/28 07:15:56;;;;;;;1.77;0.35;;;19.10;99.90;;;;;;4920006;29;20216;-75
2022/12/28 07:18:23;;;;;;;0.30;0.30;;;19.10;99.90;;;;;;4920212;29;20228;-75
2022/12/28 07:20:50;;;;;;;3.58;0.40;;;19.10;99.90;;;;;;4920107;29;20220;-74
2022/12/28 07:23:16;;;;;;;0.40;0.30;;;19.10;99.90;;;;;;4919848;29;20213;-76
2022/12/28 07:25:43;;;;;;;0.28;0.28;;;19.10;99.90;;;;;;4919866;29;20673;-75
2022/12/28 07:28:10;;;;;;;0.20;0.20;;;19.10;99.90;;;;;;4920037;29;20256;-74
2022/12/28 07:30:38;;;;;;;1.75;0.20;;;19.10;99.90;;;;;;4920075;29;20231;-74
2022/12/28 07:33:04;;;;;;;1.60;0.40;;;19.10;99.90;;;;;;4920003;29;20204;-73
2022/12/28 07:35:31;;;;;;;0.38;0.38;;;19.10;99.90;;;;;;4919935;29;20216;-73
2022/12/28 07:37:58;;;;;;;4.68;0.30;;;19.10;99.90;;;;;;4919845;29;20264;-73
2022/12/28 07:40:24;;;;;;;0.57;0.40;;;19.10;99.90;;;;;;4919973;29;20673;-74
2022/12/28 07:42:51;;;;;;;9.73;0.70;;;19.10;99.90;;;;;;4920311;29;20320;-74
2022/12/28 07:45:18;;;;;;;0.85;0.47;;;19.10;99.90;;;;;;4920060;29;20211;-74
2022/12/28 07:47:46;;;;;;;4.03;0.40;;;19.10;99.90;;;;;;4919934;29;20195;-74
2022/12/28 07:50:13;;;;;;;4.03;0.50;;;19.10;99.90;;;;;;4922375;29;20739;-71
2022/12/28 07:52:40;;;;;;;2.10;0.40;;;19.00;99.90;;;;;;4925768;29;20205;-73
2022/12/28 07:55:07;;;;;;;2.60;0.32;;;19.10;99.90;;;;;;4923570;29;20212;-73
2022/12/28 07:57:34;;;;;;;0.40;0.40;;;19.10;99.90;;;;;;4926419;29;20200;-73
2022/12/28 08:00:02;;;;;;;1.85;0.30;;;19.10;99.90;;;;;;4927062;29;20224;-73
2022/12/28 08:02:29;;;;;;;2.38;0.40;;;19.00;99.90;;;;;;4923064;29;20205;-73
2022/12/28 08:04:57;;;;;;;0.20;0.20;;;19.00;99.90;;;;;;4923108;29;20209;-73
2022/12/28 08:07:23;;;;;;;0.32;0.32;;;19.00;99.90;;;;;;4922234;29;20213;-73
2022/12/28 08:09:50;;;;;;;0.30;0.30;;;19.00;99.90;;;;;;4922610;29;20271;-72
2022/12/28 08:12:17;;;;;;;0.38;0.38;;;19.00;99.90;;;;;;4922117;29;20205;-71
2022/12/28 08:14:43;;;;;;;2.88;1.10;;;19.00;99.90;;;;;;4921699;29;20201;-70
2022/12/28 08:17:10;;;;;;;4.18;2.90;;;19.10;99.90;;;;;;4921602;29;20208;-72
2022/12/28 08:19:37;;;;;;;1.35;1.35;;;19.00;99.90;;;;;;4922592;29;20221;-73
2022/12/28 08:22:05;;;;;;;2.78;2.40;;;19.00;99.90;;;;;;4923018;29;20580;-74
2022/12/28 08:24:32;;;;;;;10.88;2.33;;;19.00;99.90;;;;;;4923397;29;20320;-75
2022/12/28 08:26:58;;;;;;;3.83;3.47;;;19.00;99.90;;;;;;4920012;29;20216;-73
2022/12/28 08:29:25;;;;;;;5.60;2.83;;;19.00;99.90;;;;;;4918935;29;20240;-74
2022/12/28 08:31:52;;;;;;;4.80;3.78;;;19.00;99.90;;;;;;4919183;29;20208;-73
2022/12/28 08:34:21;;;;;;;9.82;3.92;;;19.00;99.90;;;;;;4918879;29;20212;-73
2022/12/28 08:36:48;;;;;;;10.95;4.30;;;19.00;99.90;;;;;;4918794;29;20216;-72
2022/12/28 08:39:16;;;;;;;8.18;4.45;;;19.00;99.90;;;;;;4918965;29;20229;-72
2022/12/28 08:41:43;;;;;;;6.57;4.20;;;19.00;99.90;;;;;;4918799;29;20614;-76
2022/12/28 08:44:10;;;;;;;10.55;4.60;;;19.00;99.90;;;;;;4918396;29;20225;-77
2022/12/28 08:46:39;;;;;;;9.10;4.20;;;19.00;99.90;;;;;;4918691;29;20205;-77
2022/12/28 08:49:05;;;;;;;9.48;3.95;;;19.00;99.90;;;;;;4919596;29;20248;-76
2022/12/28 08:51:34;;;;;;;11.32;4.32;;;19.00;99.90;;;;;;4920684;29;20216;-77
2022/12/28 08:54:01;;;;;;;9.65;4.18;;;19.10;99.90;;;;;;4919356;29;20201;-77
2022/12/28 08:56:31;;;;;;;9.77;3.83;;;19.20;99.90;;;;;;4921093;29;20205;-77
2022/12/28 08:58:58;;;;;;;7.93;4.00;;;19.30;99.90;;;;;;4924047;29;20229;-78
2022/12/28 09:01:27;;;;;;;18.33;3.47;;;19.40;99.90;;;;;;4920099;29;20207;-74
2022/12/28 09:03:57;;;;;;;14.30;3.80;;;19.60;99.90;;;;;;4919122;29;20213;-75
2022/12/28 09:06:27;;;;;;;8.70;3.47;;;19.60;99.90;;;;;;4919467;29;20629;-74
2022/12/28 09:09:00;;;;;;;13.57;2.70;;;19.70;99.90;;;;;;4920140;29;20225;-77
2022/12/28 09:11:29;;;;;;;8.15;3.22;;;19.70;99.90;;;;;;4923849;29;20240;-75
2022/12/28 09:13:56;;;;;;;10.63;2.80;;;19.80;99.90;;;;;;4921828;29;20208;-76
2022/12/28 09:16:27;;;;;;;21.23;5.03;;;19.80;99.90;;;;;;4919893;29;20208;-78
2022/12/28 09:18:55;;;;;;;20.67;5.00;;;19.80;99.90;;;;;;4919912;29;20232;-80
2022/12/28 09:21:23;;;;;;;14.50;4.43;;;19.80;99.90;;;;;;4921099;29;20216;-76
2022/12/28 09:23:50;;;;;;;14.90;4.10;;;19.90;99.90;;;;;;4925669;29;20224;-80
2022/12/28 09:26:19;;;;;;;12.25;4.15;;;20.10;99.90;;;;;;4921175;29;20201;-81
2022/12/28 09:28:48;;;;;;;10.85;4.10;;;20.20;99.90;;;;;;4919663;29;20224;-81
2022/12/28 09:31:19;;;;;;;13.20;4.50;;;20.00;99.90;;;;;;4920641;29;20204;-76
2022/12/28 09:33:59;;;;;;;9.95;4.00;;;20.10;98.50;;;;;;4923780;29;20542;-77
2022/12/28 09:36:26;;;;;;;10.38;4.13;;;20.20;98.00;;;;;;4920418;29;20193;-75
2022/12/28 09:38:53;;;;;;;11.05;4.45;;;20.30;97.30;;;;;;4917914;29;20236;-75
2022/12/28 09:41:26;;;;;;;13.73;3.95;;;20.30;97.00;;;;;;4918205;29;20197;-75
2022/12/28 09:44:04;;;;;;;12.82;3.45;;;20.40;96.60;;;;;;4917493;29;20672;-76
2022/12/28 09:46:34;;;;;;;8.27;3.45;;;20.40;96.10;;;;;;4918420;29;20189;-75
2022/12/28 09:49:04;;;;;;;8.88;3.80;;;20.40;96.00;;;;;;4920126;29;20225;-76
2022/12/28 09:51:34;;;;;;;9.40;3.38;;;20.50;95.60;;;;;;4918214;29;20299;-76
2022/12/28 09:54:03;;;;;;;8.45;3.20;;;20.60;95.50;;;;;;4919795;29;20185;-76
2022/12/28 09:56:35;;;;;;;10.95;3.13;;;20.60;95.30;;;;;;4918567;29;20201;-74
2022/12/28 09:59:05;;;;;;;7.40;3.47;;;20.70;94.80;;;;;;4918145;29;20233;-77
2022/12/28 10:01:36;;;;;;;8.65;3.22;;;20.70;94.60;;;;;;4918049;29;20192;-76
2022/12/28 10:04:02;;;;;;;6.00;3.28;;;20.70;94.20;;;;;;4918151;29;20220;-77
2022/12/28 10:06:34;;;;;;;6.35;2.97;;;20.70;94.10;;;;;;4919810;29;20200;-79
2022/12/28 10:09:03;;;;;;;11.25;2.78;;;20.70;93.80;;;;;;4923495;29;20224;-79
2022/12/28 10:11:34;;;;;;;8.75;2.70;;;20.70;93.50;;;;;;4921401;29;20208;-78
2022/12/28 10:14:15;;;;;;;7.60;3.13;;;20.70;93.40;;;;;;4919499;29;20185;-78
2022/12/28 10:16:42;;;;;;;5.85;3.08;;;20.80;93.30;;;;;;4920267;29;20193;-79
2022/12/28 10:19:10;;;;;;;7.72;2.88;;;20.80;93.40;;;;;;4920139;29;20233;-79
2022/12/28 10:21:37;;;;;;;6.00;3.03;;;20.80;93.20;;;;;;4920277;29;20228;-78
2022/12/28 10:24:07;;;;;;;11.15;3.47;;;20.80;93.00;;;;;;4917211;29;20631;-78
2022/12/28 10:26:35;;;;;;;7.55;2.88;;;20.90;92.80;;;;;;4917927;29;20209;-78
2022/12/28 10:29:03;;;;;;;8.65;2.85;;;20.90;92.60;;;;;;4921025;29;20598;-78
2022/12/28 10:31:32;;;;;;;5.50;2.53;;;21.00;92.60;;;;;;4922183;29;20212;-78
2022/12/28 10:33:59;;;;;;;9.25;2.50;;;21.30;92.50;;;;;;4923205;29;20212;-77
2022/12/28 10:36:26;;;;;;;6.32;2.78;;;20.90;92.30;;;;;;4918694;29;20311;-78
2022/12/28 10:38:56;;;;;;;5.85;2.63;;;20.90;92.10;;;;;;4917378;29;20227;-78
2022/12/28 10:41:34;;;;;;;5.65;2.35;;;20.90;92.10;;;;;;4921505;29;20215;-78
2022/12/28 10:44:17;;;;;;;8.75;2.33;;;21.10;91.80;;;;;;4920621;29;20209;-79
2022/12/28 10:46:58;;;;;;;10.07;2.55;;;21.00;92.10;;;;;;4917887;29;20228;-79
2022/12/28 10:49:26;;;;;;;3.42;2.20;;;21.00;91.60;;;;;;4920927;29;20708;-78
2022/12/28 10:52:05;;;;;;;3.45;2.40;;;21.00;91.50;;;;;;4920949;29;20205;-78
2022/12/28 10:54:35;;;;;;;7.85;2.35;;;21.00;91.30;;;;;;4922401;29;20189;-78
2022/12/28 10:57:02;;;;;;;2.22;1.92;;;20.90;91.10;;;;;;4927057;29;20208;-79
2022/12/28 10:59:31;;;;;;;3.78;1.80;;;21.20;91.20;;;;;;4922570;29;20212;-78
2022/12/28 11:02:23;;;;;;;5.82;2.10;;;21.00;91.00;;;;;;4920484;29;20224;-78
2022/12/28 11:04:55;;;;;;;5.28;1.92;;;21.00;90.80;;;;;;4923569;29;20209;-78
2022/12/28 11:07:31;;;;;;;2.38;1.65;;;21.00;90.80;;;;;;4922362;29;20209;-78
2022/12/28 11:10:15;;;;;;;2.65;1.90;;;21.00;90.80;;;;;;4920089;29;20611;-78
2022/12/28 11:12:44;;;;;;;5.03;2.00;;;21.10;90.90;;;;;;4920341;29;20209;-77
2022/12/28 11:15:16;;;;;;;9.13;1.77;;;21.10;90.90;;;;;;4920303;29;20233;-77
2022/12/28 11:17:44;;;;;;;2.55;1.70;;;21.20;90.80;;;;;;4920529;29;20189;-78
2022/12/28 11:20:18;;;;;;;4.38;1.75;;;21.30;90.80;;;;;;4921252;29;20256;-78
2022/12/28 11:22:46;;;;;;;2.70;1.52;;;21.10;90.70;;;;;;4920080;29;20208;-78
2022/12/28 11:25:16;;;;;;;4.95;2.05;;;21.10;90.50;;;;;;4930992;29;20221;-79
2022/12/28 11:27:44;;;;;;;3.88;1.70;;;21.10;90.50;;;;;;4920148;29;20212;-78
2022/12/28 11:30:16;;;;;;;3.67;2.08;;;21.10;90.50;;;;;;4919652;29;20263;-77
2022/12/28 11:32:49;;;;;;;3.40;1.88;;;21.20;90.50;;;;;;4920251;29;20189;-77
2022/12/28 11:35:17;;;;;;;4.95;1.88;;;21.10;90.40;;;;;;4920072;29;20573;-77
2022/12/28 11:37:52;;;;;;;2.03;1.42;;;21.10;90.40;;;;;;4919995;29;20212;-77
2022/12/28 11:40:47;;;;;;;5.68;1.73;;;21.20;90.40;;;;;;4920216;29;20204;-78
2022/12/28 11:43:47;;;;;;;3.47;1.40;;;21.20;90.00;;;;;;4920117;29;20205;-78
2022/12/28 11:46:55;;;;;;;1.73;1.63;;;21.20;90.30;;;;;;4920035;29;20207;-78
2022/12/28 11:49:34;;;;;;;2.25;1.70;;;21.20;89.80;;;;;;4919737;29;20229;-78
2022/12/28 11:52:44;;;;;;;3.40;1.65;;;21.10;90.20;;;;;;4919461;29;20191;-78
2022/12/28 11:55:46;;;;;;;2.60;1.33;;;21.20;89.60;;;;;;4919650;29;20597;-78
2022/12/28 11:58:53;;;;;;;4.72;1.70;;;21.20;90.00;;;;;;4920258;29;20236;-78
2022/12/28 12:01:53;;;;;;;3.50;1.30;;;21.10;89.30;;;;;;4919616;29;20257;-78
2022/12/28 12:04:39;;;;;;;2.38;1.23;;;21.20;89.50;;;;;;4919851;29;20229;-78
2022/12/28 12:07:44;;;;;;;1.98;1.35;;;21.20;90.00;;;;;;4919587;29;20189;-78
2022/12/28 12:10:33;;;;;;;7.60;1.67;;;21.20;90.00;;;;;;4923290;29;20224;-78
2022/12/28 12:13:02;;;;;;;2.40;1.15;;;21.20;89.30;;;;;;4922630;29;20607;-79
2022/12/28 12:15:38;;;;;;;1.52;1.25;;;21.20;89.90;;;;;;4920328;29;20207;-79
2022/12/28 12:18:13;;;;;;;4.47;1.45;;;21.10;89.60;;;;;;4921401;29;20208;-80
2022/12/28 12:20:48;;;;;;;1.75;1.65;;;21.20;89.80;;;;;;4920439;29;20200;-79
2022/12/28 12:23:39;;;;;;;1.23;1.13;;;21.20;89.70;;;;;;4921307;29;20189;-80
2022/12/28 12:26:19;;;;;;;1.50;1.40;;;21.20;89.80;;;;;;4920260;29;20257;-79
2022/12/28 12:28:48;;;;;;;1.50;1.40;;;21.20;89.90;;;;;;4920685;29;20232;-80
2022/12/28 12:31:20;;;;;;;1.42;1.20;;;21.20;90.00;;;;;;4920568;29;20209;-80
2022/12/28 12:33:50;;;;;;;1.50;1.30;;;21.20;90.10;;;;;;4921415;29;20200;-80
2022/12/28 12:36:35;;;;;;;6.65;1.45;;;21.30;90.20;;;;;;4921364;29;20189;-80
2022/12/28 12:39:26;;;;;;;4.05;1.15;;;21.30;90.10;;;;;;4920205;29;20225;-78
2022/12/28 12:42:08;;;;;;;2.05;1.38;;;21.40;89.40;;;;;;4919382;29;20606;-78
2022/12/28 12:44:40;;;;;;;1.23;1.20;;;21.30;89.90;;;;;;4919180;29;20221;-78
2022/12/28 12:47:27;;;;;;;2.70;1.25;;;21.30;89.90;;;;;;4919274;29;20200;-77
2022/12/28 12:50:15;;;;;;;1.42;1.33;;;21.30;89.20;;;;;;4918732;29;20236;-78
2022/12/28 12:52:51;;;;;;;2.70;1.40;;;21.30;90.00;;;;;;4918511;29;20193;-77
2022/12/28 12:55:29;;;;;;;2.60;1.02;;;21.30;90.10;;;;;;4918802;29;20213;-77
2022/12/28 12:58:01;;;;;;;1.63;1.30;;;21.40;90.20;;;;;;4918417;29;20189;-77
2022/12/28 13:00:37;;;;;;;3.90;1.27;;;21.30;90.50;;;;;;4919286;29;20199;-77
2022/12/28 13:03:28;;;;;;;7.07;1.50;;;21.30;90.70;;;;;;4918387;29;20193;-77
2022/12/28 13:05:58;;;;;;;5.57;1.67;;;21.40;91.10;;;;;;4918275;29;20618;-77
2022/12/28 13:08:29;;;;;;;1.30;1.20;;;21.30;91.20;;;;;;4922125;29;20225;-77
2022/12/28 13:10:56;;;;;;;1.30;1.20;;;21.30;91.00;;;;;;4921591;29;20193;-77
2022/12/28 13:13:29;;;;;;;3.72;1.38;;;21.40;91.20;;;;;;4918248;29;20209;-77
2022/12/28 13:16:01;;;;;;;3.60;1.60;;;21.40;91.30;;;;;;4923775;29;20189;-77
2022/12/28 13:18:29;;;;;;;1.58;1.23;;;21.50;91.60;;;;;;4923806;29;20235;-77
2022/12/28 13:21:00;;;;;;;1.50;1.40;;;21.60;91.90;;;;;;4923265;29;20284;-77
2022/12/28 13:23:27;;;;;;;3.10;1.27;;;21.30;92.60;;;;;;4924089;29;20208;-77
2022/12/28 13:25:56;;;;;;;2.80;1.70;;;21.30;92.20;;;;;;4924697;29;20225;-77
2022/12/28 13:28:28;;;;;;;1.75;1.30;;;21.30;90.40;;;;;;4923019;29;20265;-77
2022/12/28 13:30:58;;;;;;;4.30;1.35;;;21.50;90.80;;;;;;4924494;29;20191;-77
2022/12/28 13:33:26;;;;;;;2.95;1.40;;;21.40;90.40;;;;;;4924993;29;20185;-77
2022/12/28 13:36:17;;;;;;;3.17;1.50;;;21.50;90.30;;;;;;4924551;29;20212;-77
2022/12/28 13:38:44;;;;;;;2.35;1.25;;;21.40;90.10;;;;;;4923891;29;20315;-77
2022/12/28 13:41:21;;;;;;;1.83;1.20;;;21.40;90.30;;;;;;4922792;29;20264;-78
2022/12/28 13:44:12;;;;;;;4.00;1.25;;;21.40;90.40;;;;;;4922843;29;20606;-78
2022/12/28 13:46:40;;;;;;;6.68;1.30;;;21.40;91.90;;;;;;4922716;29;20189;-77
2022/12/28 13:49:08;;;;;;;1.25;1.15;;;21.40;90.20;;;;;;4921884;29;20320;-77
2022/12/28 13:51:38;;;;;;;6.00;1.60;;;21.70;89.90;;;;;;4922362;29;20244;-77
2022/12/28 13:54:06;;;;;;;1.58;1.25;;;21.40;89.50;;;;;;4921837;29;20196;-77
2022/12/28 13:56:37;;;;;;;2.20;1.08;;;21.30;89.40;;;;;;4922888;29;20239;-77
2022/12/28 13:59:10;;;;;;;1.95;1.30;;;21.40;89.40;;;;;;4922383;29;20236;-77
2022/12/28 14:01:41;;;;;;;1.02;1.02;;;21.50;89.60;;;;;;4921918;29;20220;-77
2022/12/28 14:04:12;;;;;;;0.98;0.93;;;21.40;89.60;;;;;;4922181;29;20189;-77
2022/12/28 14:06:43;;;;;;;3.80;1.20;;;21.80;90.10;;;;;;4921799;29;20222;-77
2022/12/28 14:09:12;;;;;;;3.67;1.38;;;21.50;90.00;;;;;;4921777;29;20229;-77
2022/12/28 14:11:40;;;;;;;2.88;0.93;;;21.40;90.20;;;;;;4922225;29;20313;-77
2022/12/28 14:14:09;;;;;;;5.63;1.30;;;21.50;90.50;;;;;;4922023;29;20208;-77
2022/12/28 14:16:38;;;;;;;1.95;1.10;;;21.40;90.20;;;;;;4920310;29;20196;-77
2022/12/28 14:19:07;;;;;;;1.80;1.05;;;21.40;90.30;;;;;;4921966;29;20249;-76
2022/12/28 14:21:36;;;;;;;1.35;0.98;;;21.40;90.40;;;;;;4922059;29;20648;-77
2022/12/28 14:24:07;;;;;;;3.70;1.13;;;21.40;90.60;;;;;;4925134;29;20240;-77
2022/12/28 14:26:35;;;;;;;3.03;0.90;;;21.40;91.00;;;;;;4926460;29;20672;-77
2022/12/28 14:29:09;;;;;;;1.15;0.95;;;21.40;90.30;;;;;;4925631;29;20237;-77
2022/12/28 14:31:36;;;;;;;1.45;1.13;;;21.40;87.50;;;;;;4925196;29;20645;-77
2022/12/28 14:34:05;;;;;;;3.70;1.15;;;21.40;87.40;;;;;;4925710;29;20717;-77
2022/12/28 14:36:36;;;;;;;2.88;1.17;;;21.40;87.20;;;;;;4925627;29;20200;-77
2022/12/28 14:39:06;;;;;;;1.17;0.95;;;21.40;87.90;;;;;;4925582;29;20759;-77
2022/12/28 14:41:37;;;;;;;2.40;1.17;;;21.50;87.20;;;;;;4925488;29;20211;-77
2022/12/28 14:44:13;;;;;;;3.83;1.50;;;21.50;87.20;;;;;;4925419;29;20661;-77
2022/12/28 14:46:41;;;;;;;2.55;0.85;;;21.30;87.00;;;;;;4922938;29;20215;-77
2022/12/28 14:49:31;;;;;;;2.38;1.20;;;21.40;87.10;;;;;;4920858;29;20221;-77
2022/12/28 14:52:31;;;;;;;2.78;1.00;;;21.40;86.70;;;;;;4959855;23;20699;-77
2022/12/28 14:54:59;;;;;;;2.60;1.27;;;21.40;86.70;;;;;;4921148;29;20244;-77
2022/12/28 14:57:33;;;;;;;2.80;1.23;;;21.60;87.90;;;;;;4920927;29;20189;-77
2022/12/28 15:00:04;;;;;;;1.23;1.00;;;21.50;87.60;;;;;;4921029;29;20189;-77
2022/12/28 15:02:39;;;;;;;2.30;1.20;;;21.50;87.80;;;;;;4921661;29;20189;-77
2022/12/28 15:05:41;;;;;;;5.63;1.38;;;21.50;87.70;;;;;;4920881;29;20256;-77
2022/12/28 15:08:09;;;;;;;4.80;1.27;;;21.50;86.80;;;;;;4923142;29;20192;-77
2022/12/28 15:10:40;;;;;;;3.13;1.50;;;21.40;87.60;;;;;;4921369;29;20636;-76
2022/12/28 15:13:07;;;;;;;5.63;1.55;;;21.40;87.60;;;;;;4920448;29;20186;-76
2022/12/28 15:15:34;;;;;;;3.17;1.20;;;21.40;87.00;;;;;;4920844;29;20209;-77
2022/12/28 15:18:01;;;;;;;5.65;1.75;;;21.40;86.40;;;;;;4920754;29;20209;-76
2022/12/28 15:20:28;;;;;;;4.63;1.60;;;21.40;86.00;;;;;;4920629;29;20243;-76
2022/12/28 15:22:54;;;;;;;3.65;1.40;;;21.30;85.60;;;;;;4920337;29;20216;-75
2022/12/28 15:25:21;;;;;;;7.53;1.50;;;21.30;85.10;;;;;;4920142;29;20213;-75
2022/12/28 15:27:52;;;;;;;2.95;1.60;;;21.30;85.10;;;;;;4920031;29;20205;-75
2022/12/28 15:30:20;;;;;;;2.75;1.13;;;21.30;85.00;;;;;;4920225;29;20228;-75
2022/12/28 15:32:47;;;;;;;5.30;1.25;;;21.30;85.20;;;;;;4920027;29;20211;-75
2022/12/28 15:35:14;;;;;;;7.05;1.73;;;21.30;85.60;;;;;;4918979;29;20201;-75
2022/12/28 15:37:41;;;;;;;2.55;1.05;;;21.30;85.80;;;;;;4919678;29;20204;-75
2022/12/28 15:40:09;;;;;;;2.53;1.33;;;21.40;86.20;;;;;;4919851;29;20231;-75
2022/12/28 15:42:36;;;;;;;4.15;1.17;;;21.40;86.20;;;;;;4919533;29;20703;-75
2022/12/28 15:45:05;;;;;;;6.93;1.15;;;21.40;86.80;;;;;;4919840;29;20216;-75
2022/12/28 15:47:32;;;;;;;3.88;1.17;;;21.50;87.30;;;;;;4919866;29;20701;-75
2022/12/28 15:50:01;;;;;;;2.20;1.15;;;21.50;87.90;;;;;;4919572;29;20212;-75
2022/12/28 15:52:29;;;;;;;6.57;1.42;;;21.50;88.00;;;;;;4919790;29;20196;-76
2022/12/28 15:54:55;;;;;;;5.60;1.20;;;21.50;89.40;;;;;;4919744;29;20260;-76
2022/12/28 15:57:22;;;;;;;3.17;1.00;;;21.60;86.00;;;;;;4920671;29;20208;-76
2022/12/28 15:59:49;;;;;;;4.18;1.17;;;21.50;85.50;;;;;;4919433;29;20209;-76
2022/12/28 16:02:18;;;;;;;3.80;1.02;;;21.50;86.80;;;;;;4921495;29;20201;-76
2022/12/28 16:04:46;;;;;;;3.33;1.13;;;21.60;86.20;;;;;;4924213;29;20264;-74
2022/12/28 16:07:13;;;;;;;3.22;1.10;;;21.50;85.40;;;;;;4925002;29;20216;-77
2022/12/28 16:09:41;;;;;;;1.25;1.17;;;21.50;86.00;;;;;;4924990;29;20212;-76
2022/12/28 16:12:08;;;;;;;3.22;1.25;;;21.50;86.10;;;;;;4924638;29;20224;-76
2022/12/28 16:14:35;;;;;;;3.80;1.10;;;21.60;86.40;;;;;;4924981;29;20211;-76
2022/12/28 16:17:03;;;;;;;1.00;0.98;;;21.50;86.70;;;;;;4924291;29;20735;-78
2022/12/28 16:19:31;;;;;;;2.55;1.17;;;21.50;86.90;;;;;;4924959;29;20601;-76
2022/12/28 16:21:59;;;;;;;5.05;1.30;;;21.50;87.50;;;;;;4925528;29;20225;-77
2022/12/28 16:24:27;;;;;;;4.13;1.20;;;21.50;87.60;;;;;;4924776;29;20209;-77
2022/12/28 16:26:55;;;;;;;7.40;2.00;;;21.60;87.90;;;;;;4924151;29;20232;-77
2022/12/28 16:29:22;;;;;;;2.90;1.00;;;21.50;87.60;;;;;;4928791;29;20204;-78
2022/12/28 16:31:51;;;;;;;2.80;1.10;;;21.50;87.90;;;;;;4926286;29;20233;-76
2022/12/28 16:34:18;;;;;;;6.20;1.20;;;21.60;88.40;;;;;;4926351;29;20211;-73
2022/12/28 16:36:47;;;;;;;3.00;1.33;;;21.60;89.30;;;;;;4924760;29;20205;-73
2022/12/28 16:39:18;;;;;;;2.35;0.98;;;21.60;89.50;;;;;;4924495;29;20838;-74
2022/12/28 16:41:46;;;;;;;3.78;1.10;;;21.60;90.10;;;;;;4924114;29;20232;-75
2022/12/28 16:44:15;;;;;;;4.57;1.10;;;21.60;90.10;;;;;;4924211;29;20209;-76
2022/12/28 16:46:42;;;;;;;5.38;1.35;;;21.60;90.60;;;;;;4923863;29;20276;-76
2022/12/28 16:49:10;;;;;;;5.40;1.38;;;21.60;90.40;;;;;;4922613;29;20207;-76
2022/12/28 16:51:39;;;;;;;4.53;1.15;;;21.60;90.60;;;;;;4918450;29;20233;-76
2022/12/28 16:54:07;;;;;;;2.38;1.15;;;21.60;91.00;;;;;;4918307;29;20208;-76
2022/12/28 16:56:34;;;;;;;2.47;1.20;;;21.60;93.20;;;;;;4918607;29;20189;-76
2022/12/28 16:59:01;;;;;;;5.75;1.40;;;21.60;92.00;;;;;;4919054;29;20220;-76
2022/12/28 17:01:28;;;;;;;7.82;1.00;;;21.50;91.10;;;;;;4918369;29;20284;-76
2022/12/28 17:03:55;;;;;;;2.25;1.02;;;21.40;91.00;;;;;;4918454;29;20216;-76
2022/12/28 17:06:21;;;;;;;3.85;1.30;;;21.60;90.60;;;;;;4917989;29;20727;-76
2022/12/28 17:08:48;;;;;;;0.95;0.95;;;21.50;90.60;;;;;;4918287;29;20194;-76
2022/12/28 17:11:17;;;;;;;3.80;1.38;;;21.50;90.40;;;;;;4918229;29;20232;-76
2022/12/28 17:13:43;;;;;;;2.55;0.90;;;21.50;90.70;;;;;;4918161;29;20240;-75
2022/12/28 17:16:10;;;;;;;3.42;1.35;;;21.50;90.50;;;;;;4918819;29;20318;-77
2022/12/28 17:18:37;;;;;;;3.45;1.45;;;21.50;90.20;;;;;;4918188;29;20208;-77
2022/12/28 17:21:08;;;;;;;2.20;1.10;;;21.50;90.30;;;;;;4918089;29;20236;-76
2022/12/28 17:23:37;;;;;;;4.13;1.10;;;21.50;90.20;;;;;;4918749;29;20248;-76
2022/12/28 17:26:03;;;;;;;3.30;1.05;;;21.50;90.50;;;;;;4917971;29;20225;-76
2022/12/28 17:28:31;;;;;;;7.68;1.80;;;21.50;90.70;;;;;;4917929;29;20205;-77
2022/12/28 17:31:07;;;;;;;2.92;1.02;;;21.60;91.10;;;;;;4918483;29;20232;-77
2022/12/28 17:33:34;;;;;;;3.70;1.58;;;21.60;91.10;;;;;;4918736;29;20212;-76
2022/12/28 17:36:01;;;;;;;3.58;1.25;;;21.60;91.10;;;;;;4917972;29;20205;-77
2022/12/28 17:38:28;;;;;;;4.78;1.33;;;21.60;91.20;;;;;;4918207;29;20240;-77
2022/12/28 17:40:54;;;;;;;6.28;1.55;;;21.60;91.40;;;;;;4917331;29;20719;-77
2022/12/28 17:43:21;;;;;;;7.82;1.30;;;21.60;91.80;;;;;;4918448;29;20200;-78
2022/12/28 17:45:49;;;;;;;5.05;1.48;;;21.50;91.70;;;;;;4917997;29;20632;-78
2022/12/28 17:48:16;;;;;;;4.20;1.95;;;21.50;91.00;;;;;;4918256;29;20220;-78
2022/12/28 17:50:45;;;;;;;3.72;1.13;;;21.40;90.20;;;;;;4917547;29;20237;-77
2022/12/28 17:53:12;;;;;;;12.63;1.40;;;21.30;89.00;;;;;;4917637;29;20291;-77
2022/12/28 17:55:39;;;;;;;3.13;1.60;;;21.80;88.20;;;;;;4917853;29;20211;-77
2022/12/28 17:58:05;;;;;;;14.40;2.20;;;21.20;82.40;;;;;;4917619;29;20209;-78
2022/12/28 18:00:32;;;;;;;7.50;1.88;;;21.10;81.80;;;;;;4918630;29;20232;-78
2022/12/28 18:03:00;;;;;;;4.50;1.45;;;21.10;82.40;;;;;;4919116;29;20212;-79
2022/12/28 18:05:27;;;;;;;8.70;1.95;;;21.20;83.90;;;;;;4917845;29;20200;-77
2022/12/28 18:07:53;;;;;;;8.45;1.20;;;21.10;80.60;;;;;;4917617;29;20220;-77
2022/12/28 18:10:21;;;;;;;8.43;1.98;;;21.20;79.30;;;;;;4917786;29;20228;-80
2022/12/28 18:12:48;;;;;;;8.25;1.65;;;21.10;77.50;;;;;;4917840;29;20204;-77
2022/12/28 18:15:15;;;;;;;9.15;1.85;;;21.10;76.20;;;;;;4917735;29;20240;-77
2022/12/28 18:17:41;;;;;;;8.20;2.05;;;21.00;75.40;;;;;;4920532;29;20692;-78
2022/12/28 18:20:12;;;;;;;5.90;2.00;;;21.00;75.10;;;;;;4921839;29;20212;-78
2022/12/28 18:22:38;;;;;;;4.90;1.85;;;21.10;76.00;;;;;;4921598;29;20214;-79
2022/12/28 18:25:05;;;;;;;8.93;1.85;;;21.30;76.00;;;;;;4922703;29;20213;-79
2022/12/28 18:27:34;;;;;;;6.53;2.10;;;21.40;76.00;;;;;;4920516;29;20252;-78
2022/12/28 18:30:01;;;;;;;7.50;1.65;;;21.50;76.50;;;;;;4919679;29;20205;-78
2022/12/28 18:32:28;;;;;;;5.20;1.75;;;21.50;76.70;;;;;;4917006;29;20628;-75
2022/12/28 18:34:55;;;;;;;2.85;1.70;;;21.60;77.30;;;;;;4917313;29;20208;-75
2022/12/28 18:37:23;;;;;;;5.78;1.70;;;21.70;77.90;;;;;;4917276;29;20205;-75
2022/12/28 18:39:49;;;;;;;2.20;1.40;;;21.70;77.80;;;;;;4917210;29;20224;-75